sensor_id;sensor_type;location;lat;lon;timestamp;pressure;altitude;pressure_sealevel;temperature;humidity
46598;BME280;32318;48.858;8.252;2023-04-07T00:06:52;100302.19;;;8.15;70.55
46598;BME280;32318;48.858;8.252;2023-04-07T00:14:52;100279.25;;;8.14;72.02
46598;BME280;32318;48.858;8.252;2023-04-07T00:22:53;100278.84;;;8.09;70.29
46598;BME280;32318;48.858;8.252;2023-04-07T00:30:53;100266.94;;;8.13;70.23
46598;BME280;32318;48.858;8.252;2023-04-07T00:38:53;100255.63;;;8.11;70.42
46598;BME280;32318;48.858;8.252;2023-04-07T00:46:54;100244.00;;;8.12;67.68
46598;BME280;32318;48.858;8.252;2023-04-07T00:54:54;100230.00;;;8.10;68.27
46598;BME280;32318;48.858;8.252;2023-04-07T01:03:00;100229.19;;;8.09;70.93
46598;BME280;32318;48.858;8.252;2023-04-07T01:11:10;100214.91;;;8.10;70.64
46598;BME280;32318;48.858;8.252;2023-04-07T01:27:35;100199.78;;;8.11;71.35
46598;BME280;32318;48.858;8.252;2023-04-07T01:35:38;100181.44;;;8.08;69.17
46598;BME280;32318;48.858;8.252;2023-04-07T01:43:39;100189.03;;;8.03;70.34
46598;BME280;32318;48.858;8.252;2023-04-07T01:51:41;100188.34;;;8.00;69.82
46598;BME280;32318;48.858;8.252;2023-04-07T01:59:41;100187.66;;;7.98;68.26
46598;BME280;32318;48.858;8.252;2023-04-07T02:07:47;100184.72;;;8.01;68.83
46598;BME280;32318;48.858;8.252;2023-04-07T02:15:50;100179.69;;;7.98;68.62
46598;BME280;32318;48.858;8.252;2023-04-07T02:23:52;100168.50;;;7.95;69.08
46598;BME280;32318;48.858;8.252;2023-04-07T02:31:52;100165.31;;;7.91;71.57
46598;BME280;32318;48.858;8.252;2023-04-07T02:39:53;100165.63;;;7.88;72.35
46598;BME280;32318;48.858;8.252;2023-04-07T02:47:53;100153.44;;;7.85;70.21
46598;BME280;32318;48.858;8.252;2023-04-07T02:55:53;100143.13;;;7.82;70.24
46598;BME280;32318;48.858;8.252;2023-04-07T03:03:53;100152.91;;;7.82;71.64
46598;BME280;32318;48.858;8.252;2023-04-07T03:11:54;100147.59;;;7.82;72.27
46598;BME280;32318;48.858;8.252;2023-04-07T03:19:54;100144.09;;;7.81;71.88
46598;BME280;32318;48.858;8.252;2023-04-07T03:27:55;100135.59;;;7.78;72.71
46598;BME280;32318;48.858;8.252;2023-04-07T03:35:55;100124.56;;;7.73;72.95
46598;BME280;32318;48.858;8.252;2023-04-07T03:43:55;100145.69;;;7.74;72.57
46598;BME280;32318;48.858;8.252;2023-04-07T03:51:56;100130.56;;;7.75;73.25
46598;BME280;32318;48.858;8.252;2023-04-07T03:59:56;100144.84;;;7.74;73.53
46598;BME280;32318;48.858;8.252;2023-04-07T04:07:56;100128.81;;;7.65;74.28
46598;BME280;32318;48.858;8.252;2023-04-07T04:15:57;100121.28;;;7.61;73.75
46598;BME280;32318;48.858;8.252;2023-04-07T04:23:57;100133.47;;;7.53;73.66
46598;BME280;32318;48.858;8.252;2023-04-07T04:31:57;100131.25;;;7.49;73.92
46598;BME280;32318;48.858;8.252;2023-04-07T04:39:58;100130.19;;;7.42;74.22
46598;BME280;32318;48.858;8.252;2023-04-07T04:47:58;100137.75;;;7.36;74.42
46598;BME280;32318;48.858;8.252;2023-04-07T04:55:58;100137.44;;;7.40;75.47
46598;BME280;32318;48.858;8.252;2023-04-07T05:03:58;100146.81;;;7.44;75.41
46598;BME280;32318;48.858;8.252;2023-04-07T05:11:59;100144.16;;;7.44;75.50
46598;BME280;32318;48.858;8.252;2023-04-07T05:20:01;100145.84;;;7.45;75.99
46598;BME280;32318;48.858;8.252;2023-04-07T05:28:01;100151.53;;;7.50;75.95
46598;BME280;32318;48.858;8.252;2023-04-07T05:36:01;100148.50;;;7.45;75.73
46598;BME280;32318;48.858;8.252;2023-04-07T05:44:02;100141.34;;;7.45;76.11
46598;BME280;32318;48.858;8.252;2023-04-07T05:52:02;100142.97;;;7.56;76.54
46598;BME280;32318;48.858;8.252;2023-04-07T06:00:05;100140.75;;;7.79;76.03
46598;BME280;32318;48.858;8.252;2023-04-07T06:08:05;100143.47;;;9.14;73.31
46598;BME280;32318;48.858;8.252;2023-04-07T06:16:06;100138.22;;;9.31;70.73
46598;BME280;32318;48.858;8.252;2023-04-07T06:24:06;100138.88;;;9.24;70.76
46598;BME280;32318;48.858;8.252;2023-04-07T06:32:07;100158.75;;;9.73;68.11
46598;BME280;32318;48.858;8.252;2023-04-07T06:40:07;100146.44;;;9.80;67.63
46598;BME280;32318;48.858;8.252;2023-04-07T06:48:08;100152.94;;;9.78;67.70
46598;BME280;32318;48.858;8.252;2023-04-07T06:56:11;100155.47;;;9.87;67.79
46598;BME280;32318;48.858;8.252;2023-04-07T07:04:11;100152.03;;;10.12;67.34
46598;BME280;32318;48.858;8.252;2023-04-07T07:12:12;100150.22;;;10.20;67.14
46598;BME280;32318;48.858;8.252;2023-04-07T07:20:14;100154.91;;;10.35;67.24
46598;BME280;32318;48.858;8.252;2023-04-07T07:28:16;100167.56;;;10.25;66.65
46598;BME280;32318;48.858;8.252;2023-04-07T07:36:16;100168.03;;;10.12;67.76
46598;BME280;32318;48.858;8.252;2023-04-07T07:44:17;100176.47;;;9.91;68.29
46598;BME280;32318;48.858;8.252;2023-04-07T13:28:50;100233.25;;;13.09;64.55
46598;BME280;32318;48.858;8.252;2023-04-07T13:36:50;100236.59;;;13.26;61.91
46598;BME280;32318;48.858;8.252;2023-04-07T13:44:50;100230.94;;;13.36;61.67
46598;BME280;32318;48.858;8.252;2023-04-07T13:52:53;100233.22;;;13.47;61.06
46598;BME280;32318;48.858;8.252;2023-04-07T14:00:53;100234.97;;;13.40;61.22
46598;BME280;32318;48.858;8.252;2023-04-07T14:08:54;100238.97;;;12.82;62.86
46598;BME280;32318;48.858;8.252;2023-04-07T14:16:54;100247.94;;;12.43;63.28
46598;BME280;32318;48.858;8.252;2023-04-07T14:24:55;100245.19;;;12.20;65.52
46598;BME280;32318;48.858;8.252;2023-04-07T14:32:55;100251.03;;;11.75;68.26
46598;BME280;32318;48.858;8.252;2023-04-07T14:40:55;100250.34;;;11.73;68.25
46598;BME280;32318;48.858;8.252;2023-04-07T14:48:55;100248.69;;;11.64;71.17
46598;BME280;32318;48.858;8.252;2023-04-07T14:56:57;100260.75;;;11.60;70.06
46598;BME280;32318;48.858;8.252;2023-04-07T15:04:58;100263.59;;;11.58;70.43
46598;BME280;32318;48.858;8.252;2023-04-07T15:12:58;100271.78;;;11.49;71.10
46598;BME280;32318;48.858;8.252;2023-04-07T15:20:58;100273.28;;;11.51;70.67
46598;BME280;32318;48.858;8.252;2023-04-07T15:28:59;100269.78;;;11.51;71.21
46598;BME280;32318;48.858;8.252;2023-04-07T15:37:00;100283.31;;;11.49;71.69
46598;BME280;32318;48.858;8.252;2023-04-07T15:45:00;100297.03;;;11.38;72.06
46598;BME280;32318;48.858;8.252;2023-04-07T15:53:01;100301.03;;;11.34;71.88
46598;BME280;32318;48.858;8.252;2023-04-07T16:01:03;100312.09;;;11.22;71.70
46598;BME280;32318;48.858;8.252;2023-04-07T16:09:09;100313.56;;;10.92;72.65
46598;BME280;32318;48.858;8.252;2023-04-07T16:17:10;100318.81;;;10.67;73.40
46598;BME280;32318;48.858;8.252;2023-04-07T16:25:11;100316.13;;;10.59;73.73
46598;BME280;32318;48.858;8.252;2023-04-07T16:33:11;100324.09;;;10.42;73.88
46598;BME280;32318;48.858;8.252;2023-04-07T16:41:12;100339.31;;;10.24;75.14
46598;BME280;32318;48.858;8.252;2023-04-07T16:49:12;100347.66;;;10.20;75.23
46598;BME280;32318;48.858;8.252;2023-04-07T16:57:12;100352.06;;;10.03;78.23
46598;BME280;32318;48.858;8.252;2023-04-07T17:05:13;100370.69;;;10.22;79.32
46598;BME280;32318;48.858;8.252;2023-04-07T17:13:13;100382.41;;;10.29;78.82
46598;BME280;32318;48.858;8.252;2023-04-07T17:21:13;100389.66;;;10.18;77.41
46598;BME280;32318;48.858;8.252;2023-04-07T17:29:15;100394.66;;;10.13;77.79
46598;BME280;32318;48.858;8.252;2023-04-07T17:37:15;100403.25;;;10.07;77.22
46598;BME280;32318;48.858;8.252;2023-04-07T17:45:15;100406.56;;;10.01;78.81
46598;BME280;32318;48.858;8.252;2023-04-07T17:53:17;100420.91;;;10.00;80.08
46598;BME280;32318;48.858;8.252;2023-04-07T18:01:18;100427.09;;;10.00;81.03
46598;BME280;32318;48.858;8.252;2023-04-07T18:09:18;100445.06;;;9.98;81.43
46598;BME280;32318;48.858;8.252;2023-04-07T18:17:19;100455.22;;;9.95;81.30
46598;BME280;32318;48.858;8.252;2023-04-07T18:25:20;100466.56;;;9.97;81.39
46598;BME280;32318;48.858;8.252;2023-04-07T18:33:21;100467.91;;;10.01;80.36
46598;BME280;32318;48.858;8.252;2023-04-07T18:41:21;100480.09;;;10.03;79.84
46598;BME280;32318;48.858;8.252;2023-04-07T18:49:21;100485.75;;;10.00;81.08
46598;BME280;32318;48.858;8.252;2023-04-07T18:57:22;100501.13;;;9.88;80.88
46598;BME280;32318;48.858;8.252;2023-04-07T19:05:22;100510.91;;;9.80;81.43
46598;BME280;32318;48.858;8.252;2023-04-07T19:13:22;100520.75;;;9.79;81.83
46598;BME280;32318;48.858;8.252;2023-04-07T19:21:22;100523.09;;;9.82;81.73
46598;BME280;32318;48.858;8.252;2023-04-07T19:29:23;100533.63;;;9.84;81.92
46598;BME280;32318;48.858;8.252;2023-04-07T19:37:23;100546.09;;;9.83;81.48
46598;BME280;32318;48.858;8.252;2023-04-07T19:45:24;100550.63;;;9.83;81.89
46598;BME280;32318;48.858;8.252;2023-04-07T19:53:24;100559.34;;;9.75;82.49
46598;BME280;32318;48.858;8.252;2023-04-07T20:01:25;100565.38;;;9.77;82.86
46598;BME280;32318;48.858;8.252;2023-04-07T20:09:26;100572.53;;;9.77;82.73
46598;BME280;32318;48.858;8.252;2023-04-07T20:17:27;100577.50;;;9.71;83.30
46598;BME280;32318;48.858;8.252;2023-04-07T20:25:27;100585.41;;;9.63;83.90
46598;BME280;32318;48.858;8.252;2023-04-07T20:33:27;100579.53;;;9.60;83.52
46598;BME280;32318;48.858;8.252;2023-04-07T20:41:27;100581.34;;;9.59;83.40
46598;BME280;32318;48.858;8.252;2023-04-07T20:49:28;100593.16;;;9.56;83.24
46598;BME280;32318;48.858;8.252;2023-04-07T20:57:28;100597.78;;;9.54;83.55
46598;BME280;32318;48.858;8.252;2023-04-07T21:05:28;100599.63;;;9.54;83.72
46598;BME280;32318;48.858;8.252;2023-04-07T21:13:28;100601.03;;;9.48;83.79
46598;BME280;32318;48.858;8.252;2023-04-07T21:21:28;100604.31;;;9.42;84.45
46598;BME280;32318;48.858;8.252;2023-04-07T21:29:30;100609.22;;;9.37;84.55
46598;BME280;32318;48.858;8.252;2023-04-07T21:37:31;100616.41;;;9.36;84.34
46598;BME280;32318;48.858;8.252;2023-04-07T21:45:31;100613.03;;;9.34;84.31
46598;BME280;32318;48.858;8.252;2023-04-07T21:53:31;100609.00;;;9.20;84.44
46598;BME280;32318;48.858;8.252;2023-04-07T22:01:32;100611.56;;;9.12;84.55
46598;BME280;32318;48.858;8.252;2023-04-07T22:09:32;100610.31;;;9.06;84.68
46598;BME280;32318;48.858;8.252;2023-04-07T22:17:32;100622.41;;;9.01;84.79
46598;BME280;32318;48.858;8.252;2023-04-07T22:25:33;100610.91;;;9.00;84.78
46598;BME280;32318;48.858;8.252;2023-04-07T22:33:33;100622.97;;;8.94;84.92
46598;BME280;32318;48.858;8.252;2023-04-07T22:41:33;100635.47;;;8.94;85.38
46598;BME280;32318;48.858;8.252;2023-04-07T22:49:33;100641.50;;;8.96;85.20
46598;BME280;32318;48.858;8.252;2023-04-07T22:57:34;100636.16;;;8.96;84.60
46598;BME280;32318;48.858;8.252;2023-04-07T23:05:34;100629.97;;;8.95;85.17
46598;BME280;32318;48.858;8.252;2023-04-07T23:13:34;100639.94;;;8.93;84.73
46598;BME280;32318;48.858;8.252;2023-04-07T23:21:35;100631.94;;;8.93;84.85
46598;BME280;32318;48.858;8.252;2023-04-07T23:29:35;100641.38;;;8.88;85.86
46598;BME280;32318;48.858;8.252;2023-04-07T23:37:35;100648.81;;;8.84;85.86
46598;BME280;32318;48.858;8.252;2023-04-07T23:45:36;100652.56;;;8.82;85.88
46598;BME280;32318;48.858;8.252;2023-04-07T23:53:36;100654.56;;;8.79;85.71
